sensor_id;sensor_type;location;lat;lon;timestamp;pressure;altitude;pressure_sealevel;temperature;humidity
75886;BME280;64561;44.018;10.144;2023-03-13T00:01:30;101734.88;;;10.83;82.60
75886;BME280;64561;44.018;10.144;2023-03-13T00:03:57;101728.22;;;10.86;82.32
75886;BME280;64561;44.018;10.144;2023-03-13T00:06:26;101731.78;;;10.91;82.45
75886;BME280;64561;44.018;10.144;2023-03-13T00:08:54;101745.53;;;10.93;81.98
75886;BME280;64561;44.018;10.144;2023-03-13T00:11:21;101748.69;;;10.86;81.95
75886;BME280;64561;44.018;10.144;2023-03-13T00:13:53;101753.94;;;10.89;80.92
75886;BME280;64561;44.018;10.144;2023-03-13T00:16:20;101757.41;;;10.69;82.04
75886;BME280;64561;44.018;10.144;2023-03-13T00:18:49;101761.22;;;10.58;83.04
75886;BME280;64561;44.018;10.144;2023-03-13T00:21:18;101762.63;;;10.49;82.28
75886;BME280;64561;44.018;10.144;2023-03-13T00:23:46;101769.63;;;10.53;82.61
75886;BME280;64561;44.018;10.144;2023-03-13T00:26:18;101771.22;;;10.51;82.83
75886;BME280;64561;44.018;10.144;2023-03-13T00:28:47;101759.63;;;10.60;82.13
75886;BME280;64561;44.018;10.144;2023-03-13T00:31:19;101762.66;;;10.72;81.79
75886;BME280;64561;44.018;10.144;2023-03-13T00:33:50;101764.56;;;10.78;81.59
75886;BME280;64561;44.018;10.144;2023-03-13T00:36:20;101764.69;;;10.81;81.06
75886;BME280;64561;44.018;10.144;2023-03-13T00:38:48;101773.34;;;10.84;81.03
75886;BME280;64561;44.018;10.144;2023-03-13T00:41:17;101765.38;;;10.76;80.78
75886;BME280;64561;44.018;10.144;2023-03-13T00:43:45;101772.41;;;10.82;80.16
75886;BME280;64561;44.018;10.144;2023-03-13T00:46:14;101771.53;;;10.82;80.35
75886;BME280;64561;44.018;10.144;2023-03-13T00:48:41;101771.31;;;10.75;79.83
75886;BME280;64561;44.018;10.144;2023-03-13T00:51:09;101780.50;;;10.70;79.96
75886;BME280;64561;44.018;10.144;2023-03-13T00:53:36;101780.44;;;10.69;79.41
75886;BME280;64561;44.018;10.144;2023-03-13T00:56:05;101773.44;;;10.65;79.54
75886;BME280;64561;44.018;10.144;2023-03-13T00:58:38;101771.84;;;10.67;79.53
75886;BME280;64561;44.018;10.144;2023-03-13T01:01:29;101781.44;;;10.72;79.39
75886;BME280;64561;44.018;10.144;2023-03-13T01:03:59;101775.44;;;10.72;79.28
75886;BME280;64561;44.018;10.144;2023-03-13T01:06:30;101764.84;;;10.63;79.56
75886;BME280;64561;44.018;10.144;2023-03-13T01:08:58;101753.69;;;10.61;80.06
75886;BME280;64561;44.018;10.144;2023-03-13T01:11:27;101751.25;;;10.64;81.42
75886;BME280;64561;44.018;10.144;2023-03-13T01:14:00;101743.56;;;10.64;81.00
75886;BME280;64561;44.018;10.144;2023-03-13T01:16:29;101752.34;;;10.70;81.02
75886;BME280;64561;44.018;10.144;2023-03-13T01:19:02;101758.28;;;10.47;81.27
75886;BME280;64561;44.018;10.144;2023-03-13T01:21:30;101754.81;;;10.46;81.85
75886;BME280;64561;44.018;10.144;2023-03-13T01:23:57;101745.66;;;10.51;81.57
75886;BME280;64561;44.018;10.144;2023-03-13T01:26:25;101748.31;;;10.55;80.47
75886;BME280;64561;44.018;10.144;2023-03-13T01:28:53;101750.91;;;10.34;81.73
75886;BME280;64561;44.018;10.144;2023-03-13T01:31:24;101759.06;;;10.25;81.47
75886;BME280;64561;44.018;10.144;2023-03-13T01:33:57;101764.41;;;10.29;81.99
75886;BME280;64561;44.018;10.144;2023-03-13T01:36:26;101761.34;;;10.38;82.28
75886;BME280;64561;44.018;10.144;2023-03-13T01:38:55;101759.94;;;10.46;81.59
75886;BME280;64561;44.018;10.144;2023-03-13T01:41:23;101763.19;;;10.42;80.95
75886;BME280;64561;44.018;10.144;2023-03-13T01:43:50;101751.38;;;10.25;82.51
75886;BME280;64561;44.018;10.144;2023-03-13T01:46:20;101754.75;;;10.24;82.38
75886;BME280;64561;44.018;10.144;2023-03-13T01:49:16;101744.56;;;10.25;82.16
75886;BME280;64561;44.018;10.144;2023-03-13T01:52:00;101741.34;;;10.08;83.06
75886;BME280;64561;44.018;10.144;2023-03-13T01:54:38;101740.03;;;9.97;82.83
75886;BME280;64561;44.018;10.144;2023-03-13T01:59:48;101730.50;;;9.72;84.33
75886;BME280;64561;44.018;10.144;2023-03-13T02:02:17;101728.97;;;9.77;83.84
75886;BME280;64561;44.018;10.144;2023-03-13T02:04:47;101727.63;;;9.85;83.20
75886;BME280;64561;44.018;10.144;2023-03-13T02:07:20;101730.25;;;9.87;83.66
75886;BME280;64561;44.018;10.144;2023-03-13T02:09:51;101726.75;;;9.85;83.81
75886;BME280;64561;44.018;10.144;2023-03-13T02:12:39;101720.31;;;9.74;84.56
75886;BME280;64561;44.018;10.144;2023-03-13T02:17:37;101723.56;;;9.70;84.48
75886;BME280;64561;44.018;10.144;2023-03-13T02:20:05;101715.44;;;9.80;83.44
75886;BME280;64561;44.018;10.144;2023-03-13T02:28:01;101710.16;;;9.75;84.05
75886;BME280;64561;44.018;10.144;2023-03-13T02:30:32;101712.25;;;9.84;83.05
75886;BME280;64561;44.018;10.144;2023-03-13T02:33:00;101714.28;;;9.93;82.88
75886;BME280;64561;44.018;10.144;2023-03-13T02:35:28;101718.88;;;10.01;82.75
75886;BME280;64561;44.018;10.144;2023-03-13T02:38:02;101707.50;;;9.93;82.07
75886;BME280;64561;44.018;10.144;2023-03-13T02:40:35;101704.03;;;9.93;82.01
75886;BME280;64561;44.018;10.144;2023-03-13T02:43:08;101699.22;;;9.99;82.13
75886;BME280;64561;44.018;10.144;2023-03-13T02:45:37;101701.88;;;10.02;81.90
75886;BME280;64561;44.018;10.144;2023-03-13T02:48:04;101701.44;;;9.91;81.23
75886;BME280;64561;44.018;10.144;2023-03-13T02:50:31;101691.13;;;9.90;81.82
75886;BME280;64561;44.018;10.144;2023-03-13T02:53:04;101697.41;;;9.96;82.07
75886;BME280;64561;44.018;10.144;2023-03-13T02:55:40;101690.03;;;9.83;81.53
75886;BME280;64561;44.018;10.144;2023-03-13T02:58:10;101690.38;;;9.71;81.64
75886;BME280;64561;44.018;10.144;2023-03-13T03:00:36;101684.25;;;9.66;82.51
75886;BME280;64561;44.018;10.144;2023-03-13T03:03:03;101693.16;;;9.76;82.54
75886;BME280;64561;44.018;10.144;2023-03-13T03:05:30;101685.16;;;9.89;82.70
75886;BME280;64561;44.018;10.144;2023-03-13T03:07:57;101695.59;;;9.94;81.41
75886;BME280;64561;44.018;10.144;2023-03-13T03:10:25;101696.91;;;9.84;81.43
75886;BME280;64561;44.018;10.144;2023-03-13T03:12:52;101702.25;;;9.90;81.58
75886;BME280;64561;44.018;10.144;2023-03-13T03:15:19;101695.81;;;9.58;82.14
75886;BME280;64561;44.018;10.144;2023-03-13T03:17:47;101699.41;;;9.42;83.56
75886;BME280;64561;44.018;10.144;2023-03-13T03:20:14;101703.00;;;9.47;83.24
75886;BME280;64561;44.018;10.144;2023-03-13T03:22:42;101719.09;;;9.66;82.83
75886;BME280;64561;44.018;10.144;2023-03-13T03:25:09;101728.66;;;9.70;82.48
75886;BME280;64561;44.018;10.144;2023-03-13T03:27:36;101729.63;;;9.72;80.93
75886;BME280;64561;44.018;10.144;2023-03-13T03:30:06;101726.16;;;9.71;81.38
75886;BME280;64561;44.018;10.144;2023-03-13T03:32:35;101725.56;;;9.77;81.95
75886;BME280;64561;44.018;10.144;2023-03-13T03:35:02;101732.31;;;9.75;81.20
75886;BME280;64561;44.018;10.144;2023-03-13T03:37:30;101740.03;;;9.76;81.89
75886;BME280;64561;44.018;10.144;2023-03-13T03:39:59;101735.78;;;9.77;81.44
75886;BME280;64561;44.018;10.144;2023-03-13T03:42:28;101738.50;;;9.60;82.18
75886;BME280;64561;44.018;10.144;2023-03-13T03:44:55;101749.16;;;9.31;82.97
75886;BME280;64561;44.018;10.144;2023-03-13T03:47:22;101742.94;;;9.26;83.85
75886;BME280;64561;44.018;10.144;2023-03-13T03:49:49;101742.94;;;9.26;83.31
75886;BME280;64561;44.018;10.144;2023-03-13T03:52:17;101749.69;;;9.24;83.81
75886;BME280;64561;44.018;10.144;2023-03-13T03:54:44;101755.38;;;9.37;83.44
75886;BME280;64561;44.018;10.144;2023-03-13T03:57:12;101750.06;;;9.52;82.42
75886;BME280;64561;44.018;10.144;2023-03-13T03:59:42;101739.28;;;9.59;82.63
75886;BME280;64561;44.018;10.144;2023-03-13T04:02:10;101749.47;;;9.58;83.04
75886;BME280;64561;44.018;10.144;2023-03-13T04:04:39;101741.84;;;9.59;82.56
75886;BME280;64561;44.018;10.144;2023-03-13T04:07:09;101752.31;;;9.66;81.68
75886;BME280;64561;44.018;10.144;2023-03-13T04:09:38;101749.28;;;9.34;83.27
75886;BME280;64561;44.018;10.144;2023-03-13T04:12:07;101758.28;;;9.26;84.04
75886;BME280;64561;44.018;10.144;2023-03-13T04:14:38;101760.19;;;9.30;84.14
75886;BME280;64561;44.018;10.144;2023-03-13T04:17:08;101761.50;;;9.41;83.94
75886;BME280;64561;44.018;10.144;2023-03-13T04:19:35;101747.94;;;9.42;83.64
75886;BME280;64561;44.018;10.144;2023-03-13T04:22:02;101753.22;;;9.47;82.86
75886;BME280;64561;44.018;10.144;2023-03-13T04:24:29;101751.28;;;9.41;83.42
75886;BME280;64561;44.018;10.144;2023-03-13T04:26:58;101738.25;;;9.35;83.24
75886;BME280;64561;44.018;10.144;2023-03-13T04:29:25;101756.94;;;9.34;83.51
75886;BME280;64561;44.018;10.144;2023-03-13T04:32:09;101755.72;;;9.26;83.98
75886;BME280;64561;44.018;10.144;2023-03-13T04:34:57;101753.84;;;9.22;84.40
75886;BME280;64561;44.018;10.144;2023-03-13T04:37:44;101755.72;;;9.26;84.70
75886;BME280;64561;44.018;10.144;2023-03-13T04:40:40;101747.53;;;9.33;83.62
75886;BME280;64561;44.018;10.144;2023-03-13T04:43:32;101742.63;;;9.37;84.17
75886;BME280;64561;44.018;10.144;2023-03-13T04:46:25;101737.50;;;9.37;84.10
75886;BME280;64561;44.018;10.144;2023-03-13T04:49:10;101730.25;;;9.47;84.50
75886;BME280;64561;44.018;10.144;2023-03-13T04:51:56;101725.53;;;9.56;83.92
75886;BME280;64561;44.018;10.144;2023-03-13T04:54:43;101727.81;;;9.69;83.89
75886;BME280;64561;44.018;10.144;2023-03-13T04:57:29;101725.50;;;9.75;83.63
75886;BME280;64561;44.018;10.144;2023-03-13T05:00:20;101723.75;;;9.74;83.61
75886;BME280;64561;44.018;10.144;2023-03-13T05:03:10;101723.69;;;9.73;83.20
75886;BME280;64561;44.018;10.144;2023-03-13T05:06:00;101733.91;;;9.73;83.40
75886;BME280;64561;44.018;10.144;2023-03-13T05:08:52;101744.63;;;9.64;83.00
75886;BME280;64561;44.018;10.144;2023-03-13T05:11:30;101746.47;;;9.68;83.92
75886;BME280;64561;44.018;10.144;2023-03-13T05:14:07;101753.63;;;9.75;83.30
75886;BME280;64561;44.018;10.144;2023-03-13T05:16:49;101756.47;;;9.83;83.29
75886;BME280;64561;44.018;10.144;2023-03-13T05:19:47;101756.72;;;9.89;82.59
75886;BME280;64561;44.018;10.144;2023-03-13T05:22:35;101751.56;;;9.88;82.74
75886;BME280;64561;44.018;10.144;2023-03-13T05:25:16;101743.94;;;9.89;82.94
75886;BME280;64561;44.018;10.144;2023-03-13T05:28:15;101753.50;;;9.93;82.10
75886;BME280;64561;44.018;10.144;2023-03-13T05:30:48;101749.53;;;9.80;82.03
75886;BME280;64561;44.018;10.144;2023-03-13T05:33:24;101753.63;;;9.75;82.36
75886;BME280;64561;44.018;10.144;2023-03-13T05:36:29;101750.44;;;9.81;82.58
75886;BME280;64561;44.018;10.144;2023-03-13T05:39:02;101756.22;;;9.77;82.15
75886;BME280;64561;44.018;10.144;2023-03-13T05:41:49;101755.22;;;9.73;82.19
75886;BME280;64561;44.018;10.144;2023-03-13T05:44:36;101757.59;;;9.69;82.13
75886;BME280;64561;44.018;10.144;2023-03-13T05:47:03;101763.44;;;9.66;82.24
75886;BME280;64561;44.018;10.144;2023-03-13T05:49:43;101765.56;;;9.76;82.41
75886;BME280;64561;44.018;10.144;2023-03-13T05:52:29;101769.13;;;9.80;81.88
75886;BME280;64561;44.018;10.144;2023-03-13T05:55:01;101772.81;;;9.87;82.01
75886;BME280;64561;44.018;10.144;2023-03-13T05:57:47;101778.06;;;9.90;81.75
75886;BME280;64561;44.018;10.144;2023-03-13T06:00:33;101784.19;;;9.93;81.82
75886;BME280;64561;44.018;10.144;2023-03-13T06:03:21;101794.47;;;9.95;82.04
75886;BME280;64561;44.018;10.144;2023-03-13T06:05:57;101795.41;;;9.97;81.67
75886;BME280;64561;44.018;10.144;2023-03-13T06:08:35;101785.06;;;9.94;81.38
75886;BME280;64561;44.018;10.144;2023-03-13T06:11:02;101795.03;;;9.88;82.12
75886;BME280;64561;44.018;10.144;2023-03-13T06:13:31;101789.19;;;9.90;82.26
75886;BME280;64561;44.018;10.144;2023-03-13T06:16:03;101793.34;;;9.88;81.87
75886;BME280;64561;44.018;10.144;2023-03-13T06:18:44;101796.97;;;9.74;82.08
75886;BME280;64561;44.018;10.144;2023-03-13T06:21:11;101802.91;;;9.73;83.07
75886;BME280;64561;44.018;10.144;2023-03-13T06:23:38;101811.31;;;9.70;83.21
75886;BME280;64561;44.018;10.144;2023-03-13T06:26:05;101811.09;;;9.66;83.44
75886;BME280;64561;44.018;10.144;2023-03-13T06:28:32;101811.53;;;9.75;83.03
75886;BME280;64561;44.018;10.144;2023-03-13T06:31:03;101809.25;;;9.81;83.19
75886;BME280;64561;44.018;10.144;2023-03-13T06:33:30;101815.41;;;9.86;83.47
75886;BME280;64561;44.018;10.144;2023-03-13T06:35:59;101800.44;;;9.95;83.42
75886;BME280;64561;44.018;10.144;2023-03-13T06:38:27;101798.16;;;10.01;83.87
75886;BME280;64561;44.018;10.144;2023-03-13T06:40:54;101796.78;;;10.10;83.68
75886;BME280;64561;44.018;10.144;2023-03-13T06:43:21;101802.53;;;10.04;83.88
75886;BME280;64561;44.018;10.144;2023-03-13T06:45:48;101800.91;;;10.06;83.81
75886;BME280;64561;44.018;10.144;2023-03-13T06:48:15;101795.22;;;10.13;83.76
75886;BME280;64561;44.018;10.144;2023-03-13T06:50:42;101791.38;;;10.23;84.09
75886;BME280;64561;44.018;10.144;2023-03-13T06:53:18;101799.47;;;10.32;84.21
75886;BME280;64561;44.018;10.144;2023-03-13T06:55:50;101791.78;;;10.32;84.60
75886;BME280;64561;44.018;10.144;2023-03-13T06:58:17;101797.28;;;10.41;84.23
75886;BME280;64561;44.018;10.144;2023-03-13T07:01:11;101803.63;;;10.51;84.56
75886;BME280;64561;44.018;10.144;2023-03-13T07:03:39;101803.78;;;10.56;84.23
75886;BME280;64561;44.018;10.144;2023-03-13T07:06:10;101812.75;;;10.65;84.08
75886;BME280;64561;44.018;10.144;2023-03-13T07:08:38;101807.09;;;10.74;83.81
75886;BME280;64561;44.018;10.144;2023-03-13T07:11:07;101803.13;;;10.82;83.54
75886;BME280;64561;44.018;10.144;2023-03-13T07:13:34;101807.75;;;10.91;82.81
75886;BME280;64561;44.018;10.144;2023-03-13T07:16:06;101815.78;;;11.00;82.64
75886;BME280;64561;44.018;10.144;2023-03-13T07:18:34;101823.06;;;11.12;82.30
75886;BME280;64561;44.018;10.144;2023-03-13T07:21:02;101820.13;;;11.25;81.37
75886;BME280;64561;44.018;10.144;2023-03-13T07:23:34;101818.25;;;11.43;81.14
75886;BME280;64561;44.018;10.144;2023-03-13T07:26:04;101816.91;;;11.53;81.44
75886;BME280;64561;44.018;10.144;2023-03-13T07:28:31;101817.94;;;11.58;81.81
75886;BME280;64561;44.018;10.144;2023-03-13T07:31:15;101824.81;;;11.59;81.97
75886;BME280;64561;44.018;10.144;2023-03-13T07:33:42;101812.97;;;11.63;82.00
75886;BME280;64561;44.018;10.144;2023-03-13T07:36:11;101814.00;;;11.68;81.78
75886;BME280;64561;44.018;10.144;2023-03-13T07:38:39;101795.31;;;11.71;80.82
75886;BME280;64561;44.018;10.144;2023-03-13T07:41:05;101793.09;;;11.81;80.26
75886;BME280;64561;44.018;10.144;2023-03-13T07:43:32;101801.84;;;11.86;80.17
75886;BME280;64561;44.018;10.144;2023-03-13T07:46:02;101803.22;;;12.01;79.43
75886;BME280;64561;44.018;10.144;2023-03-13T07:48:32;101800.84;;;12.07;79.50
75886;BME280;64561;44.018;10.144;2023-03-13T07:50:59;101800.94;;;12.10;78.92
75886;BME280;64561;44.018;10.144;2023-03-13T07:53:27;101801.16;;;12.16;77.37
75886;BME280;64561;44.018;10.144;2023-03-13T07:55:59;101804.22;;;12.31;76.75
75886;BME280;64561;44.018;10.144;2023-03-13T07:58:29;101807.94;;;12.41;76.96
75886;BME280;64561;44.018;10.144;2023-03-13T08:00:57;101801.19;;;12.70;76.27
75886;BME280;64561;44.018;10.144;2023-03-13T08:03:25;101799.00;;;12.84;72.92
75886;BME280;64561;44.018;10.144;2023-03-13T08:06:00;101804.06;;;13.10;76.04
75886;BME280;64561;44.018;10.144;2023-03-13T08:08:28;101802.22;;;13.34;77.47
75886;BME280;64561;44.018;10.144;2023-03-13T08:11:01;101811.91;;;13.43;75.96
75886;BME280;64561;44.018;10.144;2023-03-13T08:13:29;101819.81;;;13.50;74.88
75886;BME280;64561;44.018;10.144;2023-03-13T08:16:30;101823.22;;;13.49;74.03
75886;BME280;64561;44.018;10.144;2023-03-13T08:19:01;101837.81;;;13.50;72.36
75886;BME280;64561;44.018;10.144;2023-03-13T08:21:33;101837.78;;;13.49;72.91
75886;BME280;64561;44.018;10.144;2023-03-13T08:24:05;101849.19;;;13.57;75.44
75886;BME280;64561;44.018;10.144;2023-03-13T08:26:34;101844.22;;;13.65;75.99
75886;BME280;64561;44.018;10.144;2023-03-13T08:29:12;101860.41;;;13.61;75.06
75886;BME280;64561;44.018;10.144;2023-03-13T08:34:14;101853.97;;;13.45;74.66
75886;BME280;64561;44.018;10.144;2023-03-13T08:36:43;101853.81;;;13.40;74.42
75886;BME280;64561;44.018;10.144;2023-03-13T08:39:15;101844.75;;;13.53;74.42
75886;BME280;64561;44.018;10.144;2023-03-13T08:41:42;101848.41;;;13.61;75.30
75886;BME280;64561;44.018;10.144;2023-03-13T08:44:11;101847.91;;;13.75;72.50
75886;BME280;64561;44.018;10.144;2023-03-13T08:46:39;101846.16;;;13.72;72.86
75886;BME280;64561;44.018;10.144;2023-03-13T08:49:07;101848.84;;;13.77;73.11
75886;BME280;64561;44.018;10.144;2023-03-13T08:51:34;101848.16;;;13.84;72.07
75886;BME280;64561;44.018;10.144;2023-03-13T08:54:02;101848.22;;;13.85;72.55
75886;BME280;64561;44.018;10.144;2023-03-13T08:56:30;101853.44;;;13.88;73.68
75886;BME280;64561;44.018;10.144;2023-03-13T08:59:00;101862.78;;;13.85;73.33
75886;BME280;64561;44.018;10.144;2023-03-13T09:01:29;101869.09;;;13.96;72.24
75886;BME280;64561;44.018;10.144;2023-03-13T09:03:56;101871.75;;;13.99;71.70
75886;BME280;64561;44.018;10.144;2023-03-13T09:06:26;101874.50;;;14.05;70.66
75886;BME280;64561;44.018;10.144;2023-03-13T09:08:55;101891.88;;;14.14;70.21
75886;BME280;64561;44.018;10.144;2023-03-13T09:11:24;101898.78;;;14.15;70.81
75886;BME280;64561;44.018;10.144;2023-03-13T09:13:53;101892.22;;;14.28;71.85
75886;BME280;64561;44.018;10.144;2023-03-13T09:16:22;101907.97;;;14.38;71.48
75886;BME280;64561;44.018;10.144;2023-03-13T09:18:50;101913.22;;;14.43;72.63
75886;BME280;64561;44.018;10.144;2023-03-13T09:21:26;101917.66;;;14.49;73.43
75886;BME280;64561;44.018;10.144;2023-03-13T09:23:53;101920.41;;;14.53;73.29
75886;BME280;64561;44.018;10.144;2023-03-13T09:26:21;101916.06;;;14.52;75.13
75886;BME280;64561;44.018;10.144;2023-03-13T09:28:50;101919.59;;;14.56;74.72
75886;BME280;64561;44.018;10.144;2023-03-13T09:31:20;101922.97;;;14.53;74.97
75886;BME280;64561;44.018;10.144;2023-03-13T09:33:49;101915.34;;;14.56;74.95
75886;BME280;64561;44.018;10.144;2023-03-13T09:36:17;101923.38;;;14.69;73.75
75886;BME280;64561;44.018;10.144;2023-03-13T09:38:52;101920.72;;;14.66;74.27
75886;BME280;64561;44.018;10.144;2023-03-13T09:41:31;101917.22;;;14.65;73.56
75886;BME280;64561;44.018;10.144;2023-03-13T09:44:04;101905.47;;;14.75;73.12
75886;BME280;64561;44.018;10.144;2023-03-13T09:46:48;101906.50;;;14.83;72.91
75886;BME280;64561;44.018;10.144;2023-03-13T09:49:36;101908.78;;;15.07;71.86
75886;BME280;64561;44.018;10.144;2023-03-13T09:52:26;101909.31;;;15.30;69.46
75886;BME280;64561;44.018;10.144;2023-03-13T09:55:13;101901.63;;;15.33;67.40
75886;BME280;64561;44.018;10.144;2023-03-13T09:57:50;101900.91;;;15.40;68.40
75886;BME280;64561;44.018;10.144;2023-03-13T10:00:26;101902.75;;;15.46;66.67
75886;BME280;64561;44.018;10.144;2023-03-13T10:05:45;101906.91;;;15.77;65.44
75886;BME280;64561;44.018;10.144;2023-03-13T10:08:18;101897.47;;;15.79;66.46
75886;BME280;64561;44.018;10.144;2023-03-13T10:11:23;101880.16;;;15.73;66.52
75886;BME280;64561;44.018;10.144;2023-03-13T10:16:43;101895.72;;;15.76;64.88
75886;BME280;64561;44.018;10.144;2023-03-13T10:19:15;101886.16;;;15.72;64.55
75886;BME280;64561;44.018;10.144;2023-03-13T10:21:46;101882.81;;;15.76;65.45
75886;BME280;64561;44.018;10.144;2023-03-13T10:24:30;101880.28;;;15.80;65.81
75886;BME280;64561;44.018;10.144;2023-03-13T10:26:58;101871.06;;;15.92;66.93
75886;BME280;64561;44.018;10.144;2023-03-13T10:29:27;101864.50;;;16.11;65.26
75886;BME280;64561;44.018;10.144;2023-03-13T10:31:59;101865.31;;;16.09;65.39
75886;BME280;64561;44.018;10.144;2023-03-13T10:34:30;101873.81;;;16.02;65.44
75886;BME280;64561;44.018;10.144;2023-03-13T10:37:15;101873.59;;;15.91;67.34
75886;BME280;64561;44.018;10.144;2023-03-13T10:39:42;101882.88;;;15.81;67.50
75886;BME280;64561;44.018;10.144;2023-03-13T10:42:16;101873.38;;;15.78;67.62
75886;BME280;64561;44.018;10.144;2023-03-13T10:44:45;101872.72;;;15.90;68.65
75886;BME280;64561;44.018;10.144;2023-03-13T10:47:13;101879.81;;;16.00;68.17
75886;BME280;64561;44.018;10.144;2023-03-13T10:49:51;101888.72;;;16.18;67.84
75886;BME280;64561;44.018;10.144;2023-03-13T10:52:44;101889.75;;;16.26;67.98
75886;BME280;64561;44.018;10.144;2023-03-13T10:55:21;101898.50;;;16.36;69.28
75886;BME280;64561;44.018;10.144;2023-03-13T10:58:18;101898.56;;;16.39;67.54
75886;BME280;64561;44.018;10.144;2023-03-13T11:00:46;101891.56;;;16.32;67.82
75886;BME280;64561;44.018;10.144;2023-03-13T11:03:30;101884.72;;;16.35;67.42
75886;BME280;64561;44.018;10.144;2023-03-13T11:06:01;101879.47;;;16.29;67.67
75886;BME280;64561;44.018;10.144;2023-03-13T11:08:40;101875.03;;;16.22;69.12
75886;BME280;64561;44.018;10.144;2023-03-13T11:11:17;101879.31;;;16.20;68.34
75886;BME280;64561;44.018;10.144;2023-03-13T11:13:45;101874.03;;;16.15;68.34
75886;BME280;64561;44.018;10.144;2023-03-13T11:16:23;101871.50;;;16.18;70.14
75886;BME280;64561;44.018;10.144;2023-03-13T11:24:33;101851.59;;;16.10;70.31
75886;BME280;64561;44.018;10.144;2023-03-13T11:29:47;101865.31;;;16.07;72.03
75886;BME280;64561;44.018;10.144;2023-03-13T11:33:17;101855.63;;;15.97;72.24
75886;BME280;64561;44.018;10.144;2023-03-13T11:35:32;101858.16;;;15.94;72.48
75886;BME280;64561;44.018;10.144;2023-03-13T11:38:07;101848.59;;;15.88;72.58
75886;BME280;64561;44.018;10.144;2023-03-13T11:49:59;101828.31;;;16.07;73.16
75886;BME280;64561;44.018;10.144;2023-03-13T11:55:27;101844.00;;;16.19;71.69
75886;BME280;64561;44.018;10.144;2023-03-13T12:01:09;101827.66;;;16.20;73.26
75886;BME280;64561;44.018;10.144;2023-03-13T12:06:32;101835.59;;;16.32;73.58
75886;BME280;64561;44.018;10.144;2023-03-13T12:09:10;101836.38;;;16.27;72.99
75886;BME280;64561;44.018;10.144;2023-03-13T12:17:57;101829.22;;;16.10;75.72
75886;BME280;64561;44.018;10.144;2023-03-13T12:20:46;101835.44;;;16.23;75.79
75886;BME280;64561;44.018;10.144;2023-03-13T12:23:26;101825.06;;;16.20;75.08
75886;BME280;64561;44.018;10.144;2023-03-13T12:26:12;101832.16;;;16.32;74.59
75886;BME280;64561;44.018;10.144;2023-03-13T12:28:47;101821.91;;;16.38;75.07
75886;BME280;64561;44.018;10.144;2023-03-13T12:34:13;101822.72;;;16.35;75.24
75886;BME280;64561;44.018;10.144;2023-03-13T12:36:51;101819.19;;;16.30;75.15
75886;BME280;64561;44.018;10.144;2023-03-13T12:39:33;101818.47;;;16.37;76.54
75886;BME280;64561;44.018;10.144;2023-03-13T12:44:33;101813.34;;;16.40;76.53
75886;BME280;64561;44.018;10.144;2023-03-13T12:50:06;101817.91;;;16.57;75.62
75886;BME280;64561;44.018;10.144;2023-03-13T12:52:42;101817.09;;;16.59;75.93
75886;BME280;64561;44.018;10.144;2023-03-13T12:58:38;101802.41;;;16.57;73.70
75886;BME280;64561;44.018;10.144;2023-03-13T13:01:13;101793.81;;;16.58;75.26
75886;BME280;64561;44.018;10.144;2023-03-13T13:03:53;101791.19;;;16.56;74.94
75886;BME280;64561;44.018;10.144;2023-03-13T13:06:22;101771.59;;;16.71;72.73
75886;BME280;64561;44.018;10.144;2023-03-13T13:16:44;101743.31;;;16.81;72.22
75886;BME280;64561;44.018;10.144;2023-03-13T13:24:57;101736.44;;;16.80;70.00
75886;BME280;64561;44.018;10.144;2023-03-13T13:32:35;101707.09;;;16.77;70.81
75886;BME280;64561;44.018;10.144;2023-03-13T13:37:39;101714.97;;;16.87;70.94
75886;BME280;64561;44.018;10.144;2023-03-13T13:47:45;101711.25;;;16.68;70.92
75886;BME280;64561;44.018;10.144;2023-03-13T13:50:23;101717.28;;;16.69;71.55
75886;BME280;64561;44.018;10.144;2023-03-13T13:52:51;101725.69;;;16.54;71.88
75886;BME280;64561;44.018;10.144;2023-03-13T13:55:41;101723.03;;;16.46;72.49
75886;BME280;64561;44.018;10.144;2023-03-13T13:58:23;101730.75;;;16.45;73.31
75886;BME280;64561;44.018;10.144;2023-03-13T14:00:58;101727.34;;;16.46;73.51
75886;BME280;64561;44.018;10.144;2023-03-13T14:03:30;101731.56;;;16.41;73.55
75886;BME280;64561;44.018;10.144;2023-03-13T14:06:16;101731.44;;;16.33;74.30
75886;BME280;64561;44.018;10.144;2023-03-13T14:08:45;101738.16;;;16.22;74.96
75886;BME280;64561;44.018;10.144;2023-03-13T14:11:33;101725.94;;;16.10;75.01
75886;BME280;64561;44.018;10.144;2023-03-13T14:14:17;101720.59;;;15.99;75.00
75886;BME280;64561;44.018;10.144;2023-03-13T14:16:45;101708.44;;;15.92;74.67
75886;BME280;64561;44.018;10.144;2023-03-13T14:19:21;101709.31;;;15.94;74.91
75886;BME280;64561;44.018;10.144;2023-03-13T14:21:49;101719.81;;;16.04;74.61
75886;BME280;64561;44.018;10.144;2023-03-13T14:24:17;101713.69;;;15.98;74.12
75886;BME280;64561;44.018;10.144;2023-03-13T14:26:44;101707.44;;;15.84;74.74
75886;BME280;64561;44.018;10.144;2023-03-13T14:29:16;101717.75;;;15.83;75.60
75886;BME280;64561;44.018;10.144;2023-03-13T14:34:19;101711.53;;;15.73;75.45
75886;BME280;64561;44.018;10.144;2023-03-13T14:36:53;101709.72;;;15.67;76.36
75886;BME280;64561;44.018;10.144;2023-03-13T14:39:41;101701.88;;;15.63;76.74
75886;BME280;64561;44.018;10.144;2023-03-13T14:42:14;101701.00;;;15.62;76.72
75886;BME280;64561;44.018;10.144;2023-03-13T14:44:43;101694.09;;;15.61;77.17
75886;BME280;64561;44.018;10.144;2023-03-13T14:49:44;101685.34;;;15.51;77.04
75886;BME280;64561;44.018;10.144;2023-03-13T14:52:24;101693.03;;;15.48;77.23